Time;durP1;ratioP1;P1;durP2;ratioP2;P2;SDS_P1;SDS_P2;PMS_P1;PMS_P2;Temp;Humidity;BMP_temperature;BMP_pressure;BME280_temperature;BME280_humidity;BME280_pressure;Samples;Min_cycle;Max_cycle;Signal;HPM_P1;HPM_P2
2022/08/14 04:31:41;;;;;;;13.08;6.87;;;;;;;26.81;46.39;100719.13;2416267;72;25210;-72
2022/08/14 04:34:44;;;;;;;10.60;7.53;;;;;;;26.79;46.44;100717.18;2383252;74;51386;-72
2022/08/14 04:44:26;;;;;;;10.70;8.13;;;;;;;26.83;47.53;100722.44;2337375;74;22267;-72
2022/08/14 04:50:50;;;;;;;11.65;8.45;;;;;;;26.83;47.51;100718.37;2296478;76;24289;-71
2022/08/14 04:53:53;;;;;;;11.88;7.85;;;;;;;26.88;47.44;100723.92;2271017;77;49462;-71
2022/08/14 04:56:55;;;;;;;10.00;8.28;;;;;;;26.88;47.56;100725.28;2294686;77;51373;-71
2022/08/14 04:59:57;;;;;;;15.75;8.75;;;;;;;26.90;47.55;100725.33;2348825;74;50381;-71
2022/08/14 05:03:02;;;;;;;11.63;8.78;;;;;;;26.90;47.67;100724.52;2302298;76;51448;-71
2022/08/14 05:06:08;;;;;;;15.98;8.80;;;;;;;26.95;47.43;100724.63;2306105;76;22323;-71
2022/08/14 05:09:10;;;;;;;13.93;8.38;;;;;;;27.00;47.82;100726.10;2247858;76;49642;-71
2022/08/14 05:12:12;;;;;;;12.75;8.53;;;;;;;26.89;47.82;100726.38;2250990;76;49844;-71
2022/08/14 05:15:14;;;;;;;10.98;8.65;;;;;;;26.91;47.69;100715.30;2281547;77;50277;-71
2022/08/14 05:18:18;;;;;;;9.48;8.33;;;;;;;26.93;47.88;100719.42;2250513;77;51290;-71
2022/08/14 05:21:21;;;;;;;8.90;8.00;;;;;;;26.93;47.75;100716.70;2223130;79;50677;-71
2022/08/14 05:24:23;;;;;;;17.95;8.03;;;;;;;26.91;47.72;100715.30;2379532;74;50158;-72
2022/08/14 05:27:25;;;;;;;13.75;8.38;;;;;;;26.98;47.72;100711.93;2382901;73;50284;-73
2022/08/14 05:30:27;;;;;;;10.13;8.83;;;;;;;26.97;47.65;100710.26;2314649;76;51357;-72
2022/08/14 05:33:31;;;;;;;10.53;8.28;;;;;;;27.00;47.77;100705.73;2286733;76;50007;-73
2022/08/14 05:36:34;;;;;;;8.63;7.80;;;;;;;26.99;47.43;100705.42;2319283;76;50292;-72
2022/08/14 05:39:36;;;;;;;12.82;8.38;;;;;;;26.99;47.37;100697.81;2302692;77;50600;-72
2022/08/14 05:42:38;;;;;;;8.83;7.92;;;;;;;27.00;47.16;100693.52;2221889;76;50098;-74
2022/08/14 05:45:41;;;;;;;9.18;8.28;;;;;;;27.07;47.00;100687.94;2337371;74;51502;-73
2022/08/14 05:48:45;;;;;;;12.28;8.35;;;;;;;27.11;46.89;100686.41;2337313;75;51467;-74
2022/08/14 05:51:47;;;;;;;9.45;8.20;;;;;;;27.17;46.70;100685.97;2200759;80;51455;-73
2022/08/14 05:54:49;;;;;;;9.90;7.92;;;;;;;27.25;46.74;100686.45;2300224;76;51410;-74
2022/08/14 05:57:54;;;;;;;10.72;8.55;;;;;;;27.25;46.68;100688.34;2293033;74;50906;-74
2022/08/14 06:00:56;;;;;;;9.25;8.18;;;;;;;27.31;46.80;100691.48;2329765;74;51512;-72
2022/08/14 06:03:59;;;;;;;8.35;7.55;;;;;;;27.28;46.70;100693.29;2254055;76;50547;-73
2022/08/14 06:07:01;;;;;;;9.78;8.50;;;;;;;27.32;46.70;100686.32;2255646;76;51608;-72
2022/08/14 06:10:06;;;;;;;10.32;7.87;;;;;;;27.36;46.64;100686.97;2261299;77;50600;-73
2022/08/14 06:13:08;;;;;;;9.65;8.45;;;;;;;27.37;46.83;100686.42;2329806;74;50254;-73
2022/08/14 06:16:10;;;;;;;9.28;8.38;;;;;;;27.41;46.94;100701.70;2253251;77;50632;-72
2022/08/14 06:19:13;;;;;;;11.00;8.58;;;;;;;27.09;47.64;100689.34;2228245;77;51392;-72
2022/08/14 06:22:15;;;;;;;9.18;8.28;;;;;;;27.24;47.34;100686.16;2285738;76;50056;-73
2022/08/14 06:25:17;;;;;;;9.68;8.68;;;;;;;27.25;47.29;100672.05;2365090;75;51478;-72
2022/08/14 06:28:21;;;;;;;10.08;9.08;;;;;;;27.37;47.32;100670.13;2345482;75;50548;-73
2022/08/14 06:31:23;;;;;;;13.30;9.25;;;;;;;27.39;47.35;100668.53;2307942;76;51174;-72
2022/08/14 06:34:25;;;;;;;9.93;8.33;;;;;;;27.36;47.69;100663.05;2308262;76;50627;-72
2022/08/14 06:37:28;;;;;;;10.95;9.18;;;;;;;27.35;47.84;100664.91;2308406;76;51358;-73
2022/08/14 06:40:32;;;;;;;11.65;9.23;;;;;;;27.25;48.23;100667.43;2308036;76;51427;-70
2022/08/14 06:43:35;;;;;;;11.50;9.23;;;;;;;27.13;48.33;100660.66;2319833;74;50587;-70
2022/08/14 06:46:39;;;;;;;11.18;9.13;;;;;;;27.24;48.12;100660.89;2266409;77;52455;-71
2022/08/14 06:49:42;;;;;;;11.93;8.98;;;;;;;27.21;48.22;100667.63;2261740;74;50306;-72
2022/08/14 06:52:44;;;;;;;10.35;9.18;;;;;;;27.22;48.18;100676.06;2322941;75;50355;-74
2022/08/14 06:55:46;;;;;;;14.43;8.95;;;;;;;27.15;48.37;100676.19;2311113;76;49578;-77
2022/08/14 06:58:49;;;;;;;11.68;9.18;;;;;;;27.25;48.48;100672.05;2329754;76;51362;-75
2022/08/14 07:08:31;;;;;;;12.35;9.15;;;;;;;27.25;48.23;100658.45;2311433;76;22396;-75
2022/08/14 07:11:33;;;;;;;12.43;9.08;;;;;;;27.25;48.43;100659.28;2282328;76;52320;-75
2022/08/14 07:14:36;;;;;;;14.50;8.65;;;;;;;27.26;48.31;100656.05;2330027;76;51467;-77
2022/08/14 07:17:49;;;;;;;12.28;8.90;;;;;;;27.34;48.14;100657.84;2329986;76;51508;-76
2022/08/14 07:20:52;;;;;;;11.20;9.40;;;;;;;27.33;48.30;100647.20;2322045;76;51477;-74
2022/08/14 07:23:54;;;;;;;11.50;9.10;;;;;;;27.36;48.00;100647.56;2368943;74;50232;-77
2022/08/14 07:26:56;;;;;;;12.03;8.65;;;;;;;27.45;47.71;100649.35;2378510;74;50766;-75
2022/08/14 07:29:58;;;;;;;10.15;9.23;;;;;;;27.45;47.86;100651.25;2345709;74;51401;-76
2022/08/14 07:33:00;;;;;;;12.00;9.73;;;;;;;27.50;47.82;100643.20;2335932;75;51454;-73
2022/08/14 07:36:05;;;;;;;16.87;9.98;;;;;;;27.53;47.67;100644.88;2278512;75;50350;-71
2022/08/14 07:39:07;;;;;;;11.75;9.20;;;;;;;27.56;47.36;100644.92;2333964;75;50383;-73
2022/08/14 07:42:09;;;;;;;10.68;9.08;;;;;;;27.55;47.18;100649.55;2335522;75;50133;-72
2022/08/14 07:45:11;;;;;;;10.50;8.98;;;;;;;27.45;47.11;100643.92;2335018;75;50003;-73
2022/08/14 07:48:14;;;;;;;14.60;8.83;;;;;;;27.54;47.07;100627.52;2335094;75;51462;-72
2022/08/14 07:51:16;;;;;;;13.30;9.08;;;;;;;27.60;47.04;100633.05;2295739;76;51422;-72
2022/08/14 07:54:19;;;;;;;10.88;9.10;;;;;;;27.56;46.91;100633.52;2294765;76;50363;-73
2022/08/14 07:57:21;;;;;;;10.50;7.97;;;;;;;27.61;45.94;100632.79;2329759;75;51398;-72
2022/08/14 08:00:24;;;;;;;9.75;8.73;;;;;;;27.57;46.28;100628.39;2269383;76;51497;-72
2022/08/14 08:03:26;;;;;;;10.63;8.40;;;;;;;27.62;46.11;100631.74;2330167;76;51389;-73
2022/08/14 08:06:29;;;;;;;9.63;8.45;;;;;;;27.67;46.08;100621.47;2314513;75;51458;-72
2022/08/14 08:09:34;;;;;;;13.35;8.33;;;;;;;27.70;45.74;100621.00;2241585;77;50006;-75
2022/08/14 08:12:36;;;;;;;8.73;7.90;;;;;;;27.63;45.62;100619.78;2370350;75;22646;-76
2022/08/14 08:15:41;;;;;;;10.25;9.10;;;;;;;27.62;45.39;100616.79;2370542;75;51399;-75
2022/08/14 08:18:43;;;;;;;11.05;8.35;;;;;;;27.60;45.59;100624.89;2361105;75;50362;-75
2022/08/14 08:21:45;;;;;;;10.43;8.80;;;;;;;27.74;45.50;100617.53;2293275;76;50526;-74
2022/08/14 08:24:48;;;;;;;10.13;8.88;;;;;;;27.73;45.54;100607.73;2268897;76;51394;-75
2022/08/14 08:27:58;;;;;;;11.55;8.38;;;;;;;27.78;45.57;100611.90;2269682;76;50643;-74
2022/08/14 08:31:02;;;;;;;9.83;7.92;;;;;;;27.96;44.99;100607.34;2328786;75;51379;-72
2022/08/14 08:34:05;;;;;;;13.48;8.85;;;;;;;27.89;44.92;100606.13;2280604;76;49582;-74
2022/08/14 08:37:07;;;;;;;12.45;9.20;;;;;;;27.88;45.02;100615.37;2306070;76;50585;-72
2022/08/14 08:40:10;;;;;;;9.68;8.68;;;;;;;27.81;44.73;100610.62;2306454;75;52279;-74
2022/08/14 08:43:23;;;;;;;9.58;8.33;;;;;;;27.78;44.77;100604.28;2230899;78;51435;-74
2022/08/14 08:46:25;;;;;;;9.70;8.65;;;;;;;27.90;44.76;100607.79;2266132;76;50661;-73
2022/08/14 08:49:41;;;;;;;9.18;8.23;;;;;;;27.96;44.37;100599.99;2319497;73;49747;-76
2022/08/14 08:52:54;;;;;;;8.78;7.78;;;;;;;27.91;44.17;100595.83;2287621;75;22484;-75
2022/08/14 08:55:56;;;;;;;10.43;8.63;;;;;;;27.98;43.89;100582.08;2306933;76;50389;-74
2022/08/14 08:58:58;;;;;;;11.03;8.58;;;;;;;27.84;44.18;100588.36;2335813;75;50135;-76
2022/08/14 09:02:02;;;;;;;10.60;8.40;;;;;;;27.93;44.04;100588.80;2357769;75;51520;-77
2022/08/14 09:05:04;;;;;;;9.45;8.25;;;;;;;27.85;44.12;100582.38;2370584;75;51458;-74
2022/08/14 09:08:13;;;;;;;20.80;8.85;;;;;;;27.92;44.18;100578.43;2274106;75;51453;-73
2022/08/14 09:11:15;;;;;;;13.15;8.68;;;;;;;27.93;44.56;100578.73;2329384;75;50578;-75
2022/08/14 09:14:17;;;;;;;17.60;8.15;;;;;;;27.87;44.72;100572.91;2252994;75;52315;-77
2022/08/14 09:17:19;;;;;;;10.82;8.10;;;;;;;27.87;44.90;100566.11;2306149;75;51356;-76
2022/08/14 09:20:22;;;;;;;19.85;8.03;;;;;;;27.99;44.06;100563.32;2302653;75;50253;-75
2022/08/14 09:23:24;;;;;;;17.62;8.28;;;;;;;28.04;44.07;100562.58;2321921;74;50900;-75
2022/08/14 09:26:26;;;;;;;11.93;7.80;;;;;;;28.06;44.18;100563.16;2280986;76;50372;-76
2022/08/14 09:29:28;;;;;;;13.10;7.45;;;;;;;28.04;44.20;100553.06;2281288;76;51316;-77
2022/08/14 09:32:34;;;;;;;16.48;8.38;;;;;;;27.96;44.41;100561.91;2285159;76;50269;-75
2022/08/14 09:36:06;;;;;;;20.97;8.40;;;;;;;27.95;45.02;100562.16;2333219;76;50195;-75
2022/08/14 09:39:34;;;;;;;13.65;7.45;;;;;;;27.99;44.76;100552.44;2290320;76;50079;-73
2022/08/14 09:42:45;;;;;;;12.43;7.67;;;;;;;28.08;43.19;100556.91;2324780;76;51514;-72
2022/08/14 09:45:49;;;;;;;8.33;7.05;;;;;;;28.08;42.77;100556.91;2323841;75;51475;-73
2022/08/14 09:49:04;;;;;;;10.75;7.47;;;;;;;27.98;42.92;100542.64;2287258;74;50067;-74
2022/08/14 09:52:11;;;;;;;10.70;7.53;;;;;;;28.02;43.26;100536.98;2331695;76;50372;-74
2022/08/14 09:55:18;;;;;;;8.45;6.80;;;;;;;28.08;43.12;100539.23;2308365;76;50400;-72
2022/08/14 09:58:20;;;;;;;11.75;6.50;;;;;;;28.17;42.68;100540.47;2231764;77;51500;-72
2022/08/14 10:01:24;;;;;;;9.25;5.60;;;;;;;28.16;42.20;100523.87;2256266;77;51523;-73
2022/08/14 10:04:28;;;;;;;8.85;5.72;;;;;;;28.19;41.58;100532.88;2256256;77;49560;-72
2022/08/14 10:07:35;;;;;;;7.55;5.25;;;;;;;28.33;40.50;100528.71;2256496;76;50272;-70
2022/08/14 10:10:38;;;;;;;9.38;5.30;;;;;;;28.26;40.36;100517.21;2333771;76;51450;-73
2022/08/14 10:13:41;;;;;;;9.58;5.03;;;;;;;28.26;40.25;100524.02;2213405;79;49435;-73
2022/08/14 10:16:44;;;;;;;9.53;5.17;;;;;;;28.21;40.28;100515.78;2274497;77;50690;-72
2022/08/14 10:19:50;;;;;;;5.58;5.05;;;;;;;28.06;41.27;100506.04;2298568;76;50316;-72
2022/08/14 10:22:52;;;;;;;7.78;4.90;;;;;;;27.99;41.82;100500.77;2230820;77;51490;-72
2022/08/14 10:26:03;;;;;;;9.15;5.05;;;;;;;27.94;42.18;100502.86;2279512;77;50681;-72
2022/08/14 10:29:10;;;;;;;8.70;5.22;;;;;;;27.91;42.47;100498.47;2293956;76;23758;-71
2022/08/14 10:32:12;;;;;;;8.45;5.00;;;;;;;27.90;42.57;100492.73;2340139;74;51056;-72
2022/08/14 10:35:15;;;;;;;8.83;4.85;;;;;;;27.89;42.72;100489.19;2333637;74;50240;-73
2022/08/14 10:38:34;;;;;;;7.67;4.92;;;;;;;27.87;42.86;100481.81;2276642;74;51117;-72
2022/08/14 10:41:41;;;;;;;9.50;4.95;;;;;;;27.89;43.01;100471.52;2335491;76;51552;-71
2022/08/14 10:44:48;;;;;;;10.40;4.67;;;;;;;27.90;43.13;100462.81;2335499;74;51424;-73
2022/08/14 10:47:51;;;;;;;8.33;4.60;;;;;;;27.91;43.09;100465.30;2280757;76;51554;-72
2022/08/14 10:50:53;;;;;;;7.90;4.80;;;;;;;27.90;43.33;100459.58;2335980;75;51559;-72
2022/08/14 10:53:57;;;;;;;10.00;5.40;;;;;;;27.90;43.52;100445.98;2292096;76;49666;-71
2022/08/14 10:57:20;;;;;;;9.58;5.08;;;;;;;27.93;43.45;100453.64;2267802;77;50164;-72
2022/08/14 11:00:27;;;;;;;11.80;5.35;;;;;;;27.94;43.34;100441.67;2304245;75;51454;-72
2022/08/14 11:03:40;;;;;;;7.40;5.03;;;;;;;27.95;43.34;100442.48;2279352;76;50999;-72
2022/08/14 11:06:45;;;;;;;7.20;4.70;;;;;;;28.14;40.84;100439.77;2275527;76;51435;-71
2022/08/14 11:09:56;;;;;;;7.45;4.60;;;;;;;28.13;39.73;100435.93;2297373;77;51461;-72
2022/08/14 11:12:59;;;;;;;7.78;4.45;;;;;;;28.27;39.06;100442.66;2298551;77;50613;-72
2022/08/14 11:16:01;;;;;;;13.05;5.25;;;;;;;28.41;38.76;100438.48;2298223;77;50359;-77
2022/08/14 11:19:04;;;;;;;6.08;5.10;;;;;;;28.39;38.80;100442.55;2272717;77;51108;-76
2022/08/14 11:22:07;;;;;;;5.97;5.45;;;;;;;28.44;38.67;100437.19;2268259;77;50592;-71
2022/08/14 11:25:12;;;;;;;12.05;5.15;;;;;;;28.47;38.62;100424.97;2298661;77;51492;-72
2022/08/14 11:28:15;;;;;;;19.10;5.70;;;;;;;28.67;37.55;100433.37;2279536;76;51123;-71
2022/08/14 11:31:20;;;;;;;11.40;5.25;;;;;;;28.49;38.22;100429.59;2304333;74;51451;-72
2022/08/14 11:34:22;;;;;;;8.48;5.22;;;;;;;28.53;38.00;100430.20;2310456;76;50260;-72
2022/08/14 11:37:26;;;;;;;8.13;4.72;;;;;;;28.44;38.04;100423.04;2302055;77;51476;-71
2022/08/14 11:40:31;;;;;;;6.87;4.75;;;;;;;28.46;37.89;100423.31;2330231;76;50618;-74
2022/08/14 11:43:41;;;;;;;19.37;5.62;;;;;;;28.51;37.93;100427.45;2241705;77;52535;-72
2022/08/14 11:46:44;;;;;;;8.10;5.65;;;;;;;28.56;37.44;100429.69;2297106;77;51503;-73
2022/08/14 11:49:47;;;;;;;9.70;4.65;;;;;;;28.49;37.42;100420.07;2326926;76;50495;-72
2022/08/14 11:52:52;;;;;;;6.35;5.22;;;;;;;28.50;36.70;100425.81;2266749;76;49667;-73
2022/08/14 11:55:57;;;;;;;7.30;5.17;;;;;;;28.50;36.50;100413.56;2277755;77;22697;-80
2022/08/14 11:59:00;;;;;;;6.22;4.80;;;;;;;28.62;35.92;100410.17;2285582;77;50143;-74
2022/08/14 12:02:10;;;;;;;8.45;5.10;;;;;;;28.61;36.09;100411.23;2232744;77;50320;-74
2022/08/14 12:05:13;;;;;;;9.50;5.35;;;;;;;28.52;37.43;100405.98;2285108;77;51474;-72
2022/08/14 12:08:15;;;;;;;8.48;5.10;;;;;;;28.75;36.41;100403.49;2256255;77;49534;-76
2022/08/14 12:11:17;;;;;;;5.55;5.03;;;;;;;28.58;37.03;100390.78;2285911;77;50698;-75
2022/08/14 12:14:21;;;;;;;8.95;4.90;;;;;;;28.56;36.70;100405.19;2257537;77;51505;-76
2022/08/14 12:17:24;;;;;;;5.78;5.05;;;;;;;28.55;36.83;100390.48;2256891;77;49581;-76
2022/08/14 12:20:30;;;;;;;13.85;6.42;;;;;;;28.50;37.02;100387.71;2285666;77;50719;-75
2022/08/14 12:23:32;;;;;;;6.35;5.20;;;;;;;28.41;38.19;100375.89;2210276;78;50175;-75
2022/08/14 12:26:36;;;;;;;7.35;5.78;;;;;;;28.54;37.53;100376.58;2342176;76;50280;-72
2022/08/14 12:29:40;;;;;;;8.23;5.40;;;;;;;28.57;37.33;100376.91;2342795;76;51546;-76
2022/08/14 12:32:45;;;;;;;12.13;5.83;;;;;;;28.67;36.78;100366.66;2262547;78;22553;-74
2022/08/14 12:35:48;;;;;;;8.23;5.35;;;;;;;28.68;36.85;100354.68;2316222;76;22993;-72
2022/08/14 12:38:50;;;;;;;6.85;5.55;;;;;;;28.74;36.61;100361.80;2342058;76;51452;-71
2022/08/14 12:42:05;;;;;;;8.73;5.67;;;;;;;28.84;36.14;100358.36;2229912;78;50083;-71
2022/08/14 12:44:58;;;;;;;;;;;;;;;28.78;36.36;100347.97;2250952;79;22911;-71
2022/08/14 12:48:02;;;;;;;8.28;5.15;;;;;;;28.74;36.70;100338.66;2247984;79;50440;-71
2022/08/14 12:51:04;;;;;;;7.28;5.30;;;;;;;28.71;36.79;100331.02;2220291;79;52787;-71
2022/08/14 12:54:15;;;;;;;7.00;5.25;;;;;;;28.82;36.25;100341.45;2239862;77;50743;-72
2022/08/14 12:57:17;;;;;;;6.72;5.15;;;;;;;28.85;36.25;100334.96;2314638;76;50386;-71
2022/08/14 13:00:21;;;;;;;6.37;5.12;;;;;;;28.81;36.26;100322.94;2199720;79;51513;-71
2022/08/14 13:03:28;;;;;;;6.95;5.25;;;;;;;28.77;35.88;100322.34;2315185;76;50284;-72
2022/08/14 13:06:30;;;;;;;7.15;5.05;;;;;;;28.85;35.64;100332.23;2280133;78;50355;-71
2022/08/14 13:09:32;;;;;;;9.20;5.28;;;;;;;28.83;35.43;100315.33;2342287;76;51566;-72
2022/08/14 13:12:35;;;;;;;5.50;4.80;;;;;;;28.85;35.72;100312.33;2342385;76;51506;-71
2022/08/14 13:15:39;;;;;;;7.58;4.97;;;;;;;29.04;34.86;100310.05;2261019;78;50022;-71
2022/08/14 13:18:41;;;;;;;5.40;5.00;;;;;;;28.94;34.84;100318.95;2314406;76;50934;-72
2022/08/14 13:21:44;;;;;;;9.60;5.10;;;;;;;28.93;34.95;100306.94;2314814;75;50023;-72
2022/08/14 13:24:46;;;;;;;7.42;4.90;;;;;;;28.92;35.27;100290.33;2324419;75;51051;-72
2022/08/14 13:27:51;;;;;;;6.28;4.90;;;;;;;28.96;34.63;100284.66;2257239;78;51585;-72
2022/08/14 13:30:53;;;;;;;5.30;4.70;;;;;;;28.92;34.66;100275.36;2233818;77;50775;-72
2022/08/14 13:33:56;;;;;;;7.10;4.22;;;;;;;28.97;34.47;100280.84;2255480;77;51017;-71
2022/08/14 13:36:58;;;;;;;8.33;4.78;;;;;;;28.92;34.06;100265.82;2329989;76;50440;-72
2022/08/14 13:40:00;;;;;;;12.55;5.10;;;;;;;28.91;33.83;100260.92;2308072;76;50603;-71
2022/08/14 13:43:02;;;;;;;10.15;5.05;;;;;;;28.94;33.81;100254.13;2330262;76;50727;-72
2022/08/14 13:46:05;;;;;;;6.17;4.45;;;;;;;28.98;33.44;100254.71;2330075;76;51474;-72
2022/08/14 13:49:10;;;;;;;5.87;4.72;;;;;;;29.12;33.08;100257.00;2307929;76;51266;-72
2022/08/14 13:52:11;;;;;;;5.85;4.10;;;;;;;29.10;33.21;100249.08;2305549;75;22277;-72
2022/08/14 13:55:14;;;;;;;5.22;4.17;;;;;;;29.03;32.50;100241.64;2322378;76;51562;-72
2022/08/14 13:58:16;;;;;;;8.28;4.70;;;;;;;29.17;32.21;100241.50;2259723;76;51784;-72
2022/08/14 14:01:19;;;;;;;11.00;4.33;;;;;;;29.11;32.69;100226.22;2318754;76;50360;-72
2022/08/14 14:04:21;;;;;;;4.60;4.03;;;;;;;29.12;31.70;100222.39;2285309;76;51412;-73
2022/08/14 14:07:23;;;;;;;5.87;4.10;;;;;;;29.20;30.59;100224.61;2318405;76;50373;-73
2022/08/14 14:10:25;;;;;;;4.90;4.50;;;;;;;29.30;30.47;100217.85;2285326;76;50339;-73
2022/08/14 14:13:27;;;;;;;5.95;3.95;;;;;;;29.17;30.37;100216.97;2284910;76;50213;-72
2022/08/14 14:16:30;;;;;;;4.22;3.87;;;;;;;29.23;30.12;100202.28;2318489;76;51460;-72
2022/08/14 14:19:33;;;;;;;6.75;4.35;;;;;;;29.15;30.11;100203.34;2318622;76;51396;-73
2022/08/14 14:22:36;;;;;;;4.87;3.90;;;;;;;29.16;29.92;100196.27;2284967;76;51103;-72
2022/08/14 14:25:44;;;;;;;4.97;4.47;;;;;;;29.30;27.82;100191.15;2321692;75;51555;-72
2022/08/14 14:28:51;;;;;;;4.87;4.37;;;;;;;29.23;27.82;100183.20;2318360;76;51481;-72
2022/08/14 14:31:54;;;;;;;6.12;4.55;;;;;;;29.28;28.03;100179.14;2318621;76;50407;-72
2022/08/14 14:34:57;;;;;;;5.10;4.40;;;;;;;29.34;27.92;100170.47;2314049;76;50446;-72
2022/08/14 14:37:59;;;;;;;6.20;4.05;;;;;;;29.32;28.01;100175.91;2282586;77;51000;-72
2022/08/14 14:41:02;;;;;;;4.42;3.42;;;;;;;29.47;27.28;100176.77;2282596;77;52296;-72
2022/08/14 14:44:05;;;;;;;4.55;3.72;;;;;;;29.35;26.51;100178.09;2306839;77;50532;-71
2022/08/14 14:47:08;;;;;;;5.28;3.62;;;;;;;29.30;27.34;100178.34;2254509;77;53143;-71
2022/08/14 14:50:11;;;;;;;4.22;3.83;;;;;;;29.30;27.40;100167.44;2283119;77;51539;-71
2022/08/14 14:53:14;;;;;;;5.62;5.10;;;;;;;29.32;27.71;100165.82;2287822;76;51614;-71
2022/08/14 14:56:16;;;;;;;5.25;3.90;;;;;;;29.32;27.68;100163.64;2307334;76;52301;-71
2022/08/14 14:59:19;;;;;;;4.12;3.72;;;;;;;29.38;27.62;100166.66;2306897;77;52356;-71
2022/08/14 15:02:35;;;;;;;4.92;4.03;;;;;;;29.40;27.87;100172.11;2257751;77;49562;-72
2022/08/14 15:05:38;;;;;;;13.50;3.58;;;;;;;29.44;27.82;100165.57;2306861;77;50361;-72
2022/08/14 15:08:41;;;;;;;6.12;3.58;;;;;;;29.42;27.51;100150.86;2315152;75;51508;-72
2022/08/14 15:11:43;;;;;;;9.43;3.92;;;;;;;29.42;27.05;100158.23;2230844;78;50891;-72
2022/08/14 15:14:45;;;;;;;3.72;3.37;;;;;;;29.47;26.94;100155.52;2274751;77;51442;-72
2022/08/14 15:17:47;;;;;;;6.65;3.58;;;;;;;29.42;27.04;100153.59;2274677;78;51456;-72
2022/08/14 15:20:52;;;;;;;7.42;3.95;;;;;;;29.50;27.17;100154.42;2254957;78;51594;-72
2022/08/14 15:23:53;;;;;;;6.55;3.98;;;;;;;29.45;28.01;100153.59;2248196;78;22350;-72
2022/08/14 15:26:55;;;;;;;6.08;4.03;;;;;;;29.29;28.56;100157.63;2306768;77;51584;-72
2022/08/14 15:29:58;;;;;;;8.30;3.65;;;;;;;29.21;28.99;100151.86;2283058;76;50747;-71
2022/08/14 15:33:00;;;;;;;8.23;3.80;;;;;;;29.17;29.25;100142.05;2283350;77;50305;-72
2022/08/14 15:36:03;;;;;;;7.80;3.80;;;;;;;29.14;29.51;100148.03;2275834;76;51776;-72
2022/08/14 15:39:05;;;;;;;7.55;4.03;;;;;;;29.12;29.86;100140.66;2284264;76;51469;-72
2022/08/14 15:42:08;;;;;;;6.75;4.10;;;;;;;29.11;30.02;100136.31;2341915;76;51483;-72
2022/08/14 15:45:11;;;;;;;10.32;3.80;;;;;;;29.11;30.15;100138.19;2284693;76;50702;-72
2022/08/14 15:48:13;;;;;;;5.58;3.70;;;;;;;29.08;30.37;100134.09;2341574;76;50713;-71
2022/08/14 15:51:15;;;;;;;5.92;3.90;;;;;;;29.08;30.49;100130.01;2284414;76;50886;-72
2022/08/14 15:54:18;;;;;;;6.80;3.90;;;;;;;29.08;30.69;100128.65;2315667;76;51449;-72
2022/08/14 15:57:21;;;;;;;6.62;3.65;;;;;;;29.07;30.86;100124.30;2284412;76;50707;-73
2022/08/14 16:03:43;;;;;;;7.40;3.80;;;;;;;29.08;31.20;100125.41;2315278;76;21792;-72
2022/08/14 16:06:45;;;;;;;7.33;3.92;;;;;;;29.06;31.42;100124.03;2309846;76;49732;-72
2022/08/14 16:09:47;;;;;;;7.95;4.25;;;;;;;29.05;31.87;100121.02;2284753;76;50394;-72
2022/08/14 16:12:50;;;;;;;6.58;3.80;;;;;;;29.04;32.08;100119.36;2310036;76;51215;-72
2022/08/14 16:15:52;;;;;;;7.03;4.10;;;;;;;29.04;32.32;100106.55;2259832;76;51079;-73
2022/08/14 16:18:59;;;;;;;6.85;3.98;;;;;;;29.04;32.67;100107.09;2309959;76;51476;-73
2022/08/14 16:22:08;;;;;;;6.80;3.98;;;;;;;29.03;33.50;100103.56;2341172;76;22389;-73
2022/08/14 16:25:10;;;;;;;11.12;4.37;;;;;;;29.01;33.64;100098.92;2291304;76;24501;-72
2022/08/14 16:28:12;;;;;;;14.30;4.30;;;;;;;29.04;34.19;100092.93;2338415;76;51568;-72
2022/08/14 16:31:14;;;;;;;35.43;4.85;;;;;;;29.04;34.08;100093.48;2338764;76;51563;-73
2022/08/14 16:34:16;;;;;;;23.02;5.12;;;;;;;29.04;34.51;100097.56;2332504;74;51310;-74
2022/08/14 16:37:19;;;;;;;25.52;4.72;;;;;;;29.05;35.46;100085.60;2311718;76;50713;-74
2022/08/14 16:40:21;;;;;;;13.70;4.15;;;;;;;29.04;35.16;100089.39;2276373;76;51524;-74
2022/08/14 16:43:24;;;;;;;13.78;5.08;;;;;;;29.19;32.37;100078.58;2309753;76;50611;-75
2022/08/14 16:46:30;;;;;;;10.95;5.00;;;;;;;29.27;31.90;100073.96;2331503;75;50252;-75
2022/08/14 16:49:34;;;;;;;14.68;5.12;;;;;;;29.47;30.36;100079.20;2311242;76;50555;-76
2022/08/14 16:52:38;;;;;;;7.58;4.60;;;;;;;29.34;31.41;100077.80;2332953;75;50411;-76
2022/08/14 16:55:40;;;;;;;13.15;4.70;;;;;;;29.62;29.44;100079.22;2333766;76;51544;-74
2022/08/14 16:58:44;;;;;;;14.33;4.62;;;;;;;29.39;30.04;100069.64;2311358;76;51255;-74
2022/08/14 17:01:48;;;;;;;10.08;5.40;;;;;;;29.45;29.55;100068.55;2333205;76;22765;-74
2022/08/14 17:04:51;;;;;;;10.13;5.30;;;;;;;29.52;29.46;100069.11;2311153;76;52621;-73
2022/08/14 17:08:09;;;;;;;14.45;5.30;;;;;;;29.26;30.44;100066.89;2311825;76;50403;-73
2022/08/14 17:11:11;;;;;;;10.45;5.33;;;;;;;29.17;31.62;100064.95;2333649;76;50801;-74
2022/08/14 17:14:13;;;;;;;6.47;5.87;;;;;;;29.34;30.53;100066.91;2285916;76;49590;-74
2022/08/14 17:17:20;;;;;;;7.25;5.35;;;;;;;29.25;30.62;100052.97;2333421;76;50384;-74
2022/08/14 17:20:23;;;;;;;6.25;5.65;;;;;;;29.52;30.56;100053.31;2332391;76;50327;-75
2022/08/14 17:23:26;;;;;;;7.53;6.25;;;;;;;29.39;31.02;100053.81;2305280;76;51579;-74
2022/08/14 17:26:47;;;;;;;9.28;6.35;;;;;;;29.45;31.17;100053.56;2314438;74;51653;-74
2022/08/14 17:29:51;;;;;;;19.07;6.80;;;;;;;29.35;31.55;100052.73;2268479;76;49626;-74
2022/08/14 17:32:53;;;;;;;8.88;6.50;;;;;;;29.24;32.32;100049.98;2307417;76;52557;-74
2022/08/14 17:36:15;;;;;;;10.50;6.40;;;;;;;29.13;32.92;100046.94;2337131;75;51484;-74
2022/08/14 17:39:19;;;;;;;14.73;6.83;;;;;;;29.05;33.21;100044.19;2320281;75;51292;-74
2022/08/14 17:42:22;;;;;;;11.97;6.22;;;;;;;29.03;34.89;100043.63;2312938;75;51563;-75
2022/08/14 17:45:39;;;;;;;12.75;6.37;;;;;;;29.01;35.02;100043.63;2364395;73;52413;-75
2022/08/14 17:48:40;;;;;;;13.18;6.22;;;;;;;29.01;34.62;100044.98;2342087;74;22394;-74
2022/08/14 17:52:06;;;;;;;12.18;7.17;;;;;;;29.01;34.83;100047.71;2352210;75;50359;-75
2022/08/14 17:55:10;;;;;;;14.73;6.58;;;;;;;28.98;35.01;100042.77;2352158;74;23124;-73
2022/08/14 17:58:17;;;;;;;14.75;6.70;;;;;;;28.97;35.02;100042.52;2353073;75;22363;-73
2022/08/14 18:01:20;;;;;;;11.10;6.40;;;;;;;28.98;35.07;100049.58;2366085;74;51516;-73
2022/08/14 18:04:22;;;;;;;15.45;6.70;;;;;;;28.98;35.28;100049.58;2350811;74;50336;-74
2022/08/14 18:07:24;;;;;;;19.60;7.33;;;;;;;28.99;35.39;100049.88;2352965;74;50314;-74
2022/08/14 18:10:26;;;;;;;20.57;7.28;;;;;;;28.97;35.92;100056.94;2353358;75;50666;-74
2022/08/14 18:13:30;;;;;;;19.77;7.08;;;;;;;28.97;35.97;100050.13;2353197;74;50323;-75
2022/08/14 18:16:32;;;;;;;30.23;7.60;;;;;;;28.93;36.04;100047.69;2340506;75;51562;-75
2022/08/14 18:19:36;;;;;;;27.98;8.08;;;;;;;28.96;35.96;100054.50;2292890;75;51717;-75
2022/08/14 18:22:38;;;;;;;19.82;7.95;;;;;;;28.98;36.09;100057.75;2352474;75;51458;-74
2022/08/14 18:25:44;;;;;;;24.00;7.28;;;;;;;28.96;36.08;100063.48;2306975;75;51492;-74
2022/08/14 18:28:46;;;;;;;21.90;7.50;;;;;;;28.97;36.28;100072.47;2352526;75;51496;-74
2022/08/14 18:31:48;;;;;;;17.50;7.20;;;;;;;28.93;36.38;100072.72;2353381;75;51377;-74
2022/08/14 18:34:51;;;;;;;33.92;7.90;;;;;;;28.91;36.48;100078.45;2353255;75;50363;-74
2022/08/14 18:37:57;;;;;;;22.32;7.08;;;;;;;28.91;36.43;100074.36;2327986;75;51490;-73
2022/08/14 18:41:01;;;;;;;18.30;7.58;;;;;;;28.88;36.50;100083.88;2313273;75;51583;-72
2022/08/14 18:44:03;;;;;;;15.38;7.35;;;;;;;28.90;36.57;100082.78;2281811;76;50944;-73
2022/08/14 18:47:11;;;;;;;15.30;6.87;;;;;;;28.86;36.56;100086.05;2299850;76;51525;-74
2022/08/14 18:50:24;;;;;;;20.00;7.15;;;;;;;28.85;36.63;100083.06;2316547;76;51571;-74
2022/08/14 18:53:26;;;;;;;17.37;7.92;;;;;;;28.85;36.73;100094.47;2266964;76;49568;-74
2022/08/14 18:56:59;;;;;;;16.65;7.15;;;;;;;28.85;36.86;100098.03;2316215;76;51458;-74
2022/08/14 19:00:02;;;;;;;17.70;7.30;;;;;;;28.85;36.95;100093.95;2316426;76;50337;-73
2022/08/14 19:03:05;;;;;;;12.00;7.03;;;;;;;28.83;36.86;100102.92;2267139;76;50689;-74